Time;durP1;ratioP1;P1;durP2;ratioP2;P2;SDS_P1;SDS_P2;PMS_P1;PMS_P2;Temp;Humidity;BMP_temperature;BMP_pressure;BME280_temperature;BME280_humidity;BME280_pressure;Samples;Min_cycle;Max_cycle;Signal;HPM_P1;HPM_P2
2022/12/03 00:02:01;;;;;;;26.00;10.20;;;;;;;2.81;100.00;98547.63;5092407;28;20406;-78
2022/12/03 00:04:26;;;;;;;24.42;9.77;;;;;;;2.76;100.00;98544.19;5059050;28;20032;-78
2022/12/03 00:06:52;;;;;;;35.78;9.75;;;;;;;2.70;100.00;98538.13;5059076;28;20020;-78
2022/12/03 00:09:18;;;;;;;37.15;10.50;;;;;;;2.73;100.00;98547.75;5075666;28;20092;-78
2022/12/03 00:11:43;;;;;;;33.20;9.48;;;;;;;2.71;100.00;98534.56;5058876;28;20035;-78
2022/12/03 00:14:09;;;;;;;25.38;9.88;;;;;;;2.78;100.00;98560.88;5075404;28;20059;-78
2022/12/03 00:16:34;;;;;;;32.85;10.93;;;;;;;2.70;100.00;98538.13;5075606;28;20604;-78
2022/12/03 00:19:00;;;;;;;26.83;9.30;;;;;;;2.59;100.00;98540.03;5075802;28;20028;-78
2022/12/03 00:21:26;;;;;;;32.67;10.52;;;;;;;2.57;100.00;98557.66;5057921;28;20407;-78
2022/12/03 00:23:51;;;;;;;33.53;9.57;;;;;;;2.65;100.00;98555.78;5075377;28;20394;-78
2022/12/03 00:26:17;;;;;;;27.33;9.85;;;;;;;2.73;100.00;98558.31;5075546;28;20024;-78
2022/12/03 00:28:42;;;;;;;28.67;9.95;;;;;;;2.69;100.00;98575.97;5058631;28;20023;-78
2022/12/03 00:31:08;;;;;;;31.23;9.23;;;;;;;2.73;100.00;98568.88;5058449;28;20047;-78
2022/12/03 00:33:34;;;;;;;32.20;10.23;;;;;;;2.66;100.00;98569.88;5058550;28;20114;-78
2022/12/03 00:36:00;;;;;;;30.58;10.05;;;;;;;2.60;100.00;98568.19;5058792;28;20024;-78
2022/12/03 00:38:26;;;;;;;36.03;10.25;;;;;;;2.56;100.00;98571.75;5073082;28;20466;-78
2022/12/03 00:40:51;;;;;;;33.78;9.88;;;;;;;2.64;100.00;98572.53;5075028;28;20028;-77
2022/12/03 00:43:17;;;;;;;40.53;11.50;;;;;;;2.61;100.00;98580.50;5058360;28;20115;-79
2022/12/03 00:45:42;;;;;;;32.72;10.43;;;;;;;2.62;100.00;98576.94;5058510;28;20047;-78
2022/12/03 00:48:08;;;;;;;26.77;10.25;;;;;;;2.60;100.00;98584.03;5058389;28;20103;-78
2022/12/03 00:50:33;;;;;;;32.22;10.10;;;;;;;2.63;100.00;98586.63;5057956;28;20055;-77
2022/12/03 00:52:59;;;;;;;26.90;10.07;;;;;;;2.66;100.00;98594.50;5075070;28;20042;-78
2022/12/03 00:55:24;;;;;;;35.30;10.13;;;;;;;2.47;100.00;98563.97;5057721;28;20028;-78
2022/12/03 00:57:50;;;;;;;32.75;9.55;;;;;;;2.47;100.00;98571.00;5058194;28;20028;-78
2022/12/03 01:00:16;;;;;;;25.42;9.45;;;;;;;2.61;100.00;98596.34;5057877;28;20039;-78
2022/12/03 01:02:42;;;;;;;29.83;9.55;;;;;;;2.62;100.00;98598.09;5057055;28;20059;-78
2022/12/03 01:05:07;;;;;;;33.85;9.40;;;;;;;2.47;100.00;98566.59;5057663;28;20067;-78
2022/12/03 01:07:33;;;;;;;31.33;9.25;;;;;;;2.67;100.00;98595.41;5091045;28;20035;-77
2022/12/03 01:09:59;;;;;;;27.90;9.90;;;;;;;2.70;100.00;98596.22;5057955;28;20514;-77
2022/12/03 01:12:24;;;;;;;32.53;9.40;;;;;;;2.71;100.00;98597.94;5057648;28;20169;-78
2022/12/03 01:14:50;;;;;;;27.38;8.52;;;;;;;2.59;100.00;98582.28;5057668;28;20068;-78
2022/12/03 01:17:16;;;;;;;27.02;9.50;;;;;;;2.81;100.00;98606.63;5057918;28;20491;-78
2022/12/03 01:19:41;;;;;;;29.88;8.90;;;;;;;2.62;100.00;98584.88;5057662;28;20163;-78
2022/12/03 01:22:07;;;;;;;29.60;9.23;;;;;;;2.63;100.00;98578.72;5108263;28;20028;-78
2022/12/03 01:24:33;;;;;;;23.77;8.25;;;;;;;2.81;100.00;98597.81;5057457;28;20036;-78
2022/12/03 01:26:59;;;;;;;30.63;9.90;;;;;;;2.80;100.00;98601.38;5057645;28;20028;-78
2022/12/03 01:29:25;;;;;;;30.83;10.13;;;;;;;2.68;100.00;98597.13;5057220;28;20061;-79
2022/12/03 01:34:34;;;;;;;30.80;9.32;;;;;;;2.68;100.00;98599.75;5076627;28;20035;-78
2022/12/03 01:37:00;;;;;;;30.30;9.13;;;;;;;2.63;100.00;98591.03;5057374;28;20025;-78
2022/12/03 01:39:25;;;;;;;27.00;9.88;;;;;;;2.64;100.00;98590.16;5056857;28;20024;-78
2022/12/03 01:41:52;;;;;;;34.50;10.27;;;;;;;2.60;100.00;98594.59;5057407;28;20556;-78
2022/12/03 01:44:23;;;;;;;21.15;8.93;;;;;;;2.65;100.00;98594.53;5073587;28;20082;-78
2022/12/03 01:46:50;;;;;;;27.33;9.20;;;;;;;2.71;100.00;98608.50;5090849;28;20094;-77
2022/12/03 01:49:28;;;;;;;26.58;8.80;;;;;;;2.71;100.00;98602.34;5057406;28;20092;-77
2022/12/03 01:51:54;;;;;;;29.02;9.95;;;;;;;2.69;100.00;98602.41;5049541;28;20103;-77
2022/12/03 01:54:23;;;;;;;28.48;9.85;;;;;;;2.85;100.00;98615.38;5057253;28;20026;-77
2022/12/03 01:56:49;;;;;;;32.45;10.38;;;;;;;2.94;100.00;98609.97;5065165;28;20101;-77
2022/12/03 01:59:19;;;;;;;26.63;10.20;;;;;;;2.90;100.00;98603.84;5073858;28;20055;-77
2022/12/03 02:01:45;;;;;;;27.15;9.50;;;;;;;2.83;100.00;98596.06;5056669;28;20039;-77
2022/12/03 02:04:12;;;;;;;24.65;7.88;;;;;;;2.71;100.00;98592.66;5056738;28;20421;-77
2022/12/03 02:06:38;;;;;;;25.85;9.13;;;;;;;2.66;100.00;98594.50;5056712;28;20024;-77
2022/12/03 02:09:07;;;;;;;39.15;9.32;;;;;;;2.67;100.00;98598.03;5073832;28;20016;-77
2022/12/03 02:11:35;;;;;;;26.10;9.77;;;;;;;2.63;100.00;98597.19;5054016;28;20025;-78
2022/12/03 02:14:06;;;;;;;28.42;8.32;;;;;;;2.69;100.00;98605.03;5073434;28;20422;-78
2022/12/03 02:16:34;;;;;;;32.85;9.48;;;;;;;2.65;100.00;98600.69;5073485;28;20024;-78
2022/12/03 02:18:59;;;;;;;31.35;8.95;;;;;;;2.55;100.00;98600.84;5091991;28;20088;-78
2022/12/03 02:21:34;;;;;;;28.80;8.65;;;;;;;2.62;100.00;98607.75;5073642;28;20032;-78
2022/12/03 02:24:26;;;;;;;29.02;8.98;;;;;;;2.63;100.00;98618.31;5083866;28;20461;-78
2022/12/03 02:26:52;;;;;;;33.72;9.43;;;;;;;2.51;100.00;98594.72;5056543;28;20036;-79
2022/12/03 02:29:17;;;;;;;36.45;10.63;;;;;;;2.67;100.00;98622.69;5056683;28;20380;-78
2022/12/03 02:31:43;;;;;;;35.50;8.45;;;;;;;2.60;100.00;98615.72;5056389;28;20064;-79
2022/12/03 02:34:10;;;;;;;33.75;9.45;;;;;;;2.67;100.00;98608.59;5056737;28;20038;-79
2022/12/03 02:36:36;;;;;;;25.77;8.63;;;;;;;2.67;100.00;98608.59;5056349;28;20036;-78
2022/12/03 02:39:02;;;;;;;28.45;8.63;;;;;;;2.73;100.00;98613.78;5073296;28;20497;-79
2022/12/03 02:44:13;;;;;;;24.60;7.80;;;;;;;2.65;100.00;98615.66;5075892;28;20031;-79
2022/12/03 02:46:38;;;;;;;24.58;7.68;;;;;;;2.66;100.00;98606.84;5056130;28;20028;-78
2022/12/03 02:49:05;;;;;;;22.38;7.82;;;;;;;2.65;100.00;98608.59;5056407;28;20111;-79
2022/12/03 02:51:31;;;;;;;23.08;7.88;;;;;;;2.65;100.00;98602.44;5073193;28;20042;-78
2022/12/03 02:53:57;;;;;;;25.17;8.88;;;;;;;2.72;100.00;98607.63;5072985;28;20036;-78
2022/12/03 02:56:25;;;;;;;24.48;8.35;;;;;;;2.77;100.00;98602.28;5056623;28;20560;-78
2022/12/03 02:58:56;;;;;;;21.38;7.80;;;;;;;2.81;100.00;98600.47;5072979;28;20534;-78
2022/12/03 03:01:21;;;;;;;20.95;7.63;;;;;;;2.74;100.00;98595.28;5073155;28;20028;-78
2022/12/03 03:03:48;;;;;;;24.65;7.50;;;;;;;2.64;100.00;98579.59;5056231;28;20392;-77
2022/12/03 03:06:14;;;;;;;19.58;7.72;;;;;;;2.72;100.00;98582.97;5073163;28;20531;-77
2022/12/03 03:08:40;;;;;;;19.83;7.80;;;;;;;2.62;100.00;98581.34;5056321;28;20044;-77
2022/12/03 03:11:06;;;;;;;19.13;7.95;;;;;;;2.76;100.00;98575.91;5048061;28;20074;-77
2022/12/03 03:13:33;;;;;;;23.67;8.70;;;;;;;2.71;100.00;98581.22;5056280;28;20487;-77
2022/12/03 03:15:58;;;;;;;21.02;8.20;;;;;;;2.61;100.00;98582.28;5056054;28;20040;-77
2022/12/03 03:18:24;;;;;;;20.58;8.15;;;;;;;2.53;100.00;98587.66;5106637;28;20039;-78
2022/12/03 03:20:50;;;;;;;21.02;8.20;;;;;;;2.72;100.00;98604.13;5056089;28;20101;-78
2022/12/03 03:23:17;;;;;;;23.80;8.63;;;;;;;2.70;100.00;98600.63;5073145;28;20073;-79
2022/12/03 03:25:46;;;;;;;21.90;7.93;;;;;;;2.70;100.00;98606.78;5056242;28;20487;-78
2022/12/03 03:28:12;;;;;;;18.88;8.27;;;;;;;2.77;100.00;98604.06;5076414;28;20391;-78
2022/12/03 03:30:38;;;;;;;18.30;6.68;;;;;;;2.78;100.00;98593.47;5076770;28;20032;-76
2022/12/03 03:33:04;;;;;;;17.63;6.82;;;;;;;2.81;100.00;98593.41;5059446;28;20024;-77
2022/12/03 03:35:30;;;;;;;17.33;6.93;;;;;;;2.87;100.00;98610.94;5076727;28;20035;-76
2022/12/03 03:37:57;;;;;;;17.88;6.82;;;;;;;2.86;100.00;98611.84;5075942;28;20036;-77
2022/12/03 03:40:23;;;;;;;22.58;8.00;;;;;;;2.82;100.00;98610.16;5059987;28;20504;-77
2022/12/03 03:42:49;;;;;;;17.52;7.28;;;;;;;2.73;100.00;98593.53;5075923;28;20136;-76
2022/12/03 03:45:15;;;;;;;18.80;6.90;;;;;;;2.84;100.00;98592.50;5059475;28;20461;-76
2022/12/03 03:47:41;;;;;;;16.13;7.32;;;;;;;2.75;100.00;98585.59;5059419;28;20024;-77
2022/12/03 03:50:07;;;;;;;17.98;7.55;;;;;;;2.82;100.00;98589.00;5059214;28;20510;-76
2022/12/03 03:52:34;;;;;;;17.05;6.00;;;;;;;2.84;100.00;98593.38;5076103;28;20032;-76
2022/12/03 03:54:59;;;;;;;23.45;9.23;;;;;;;2.78;100.00;98597.88;5059346;28;20063;-77
2022/12/03 03:57:25;;;;;;;18.60;6.78;;;;;;;2.87;100.00;98609.19;5075814;28;20134;-78
2022/12/03 03:59:51;;;;;;;19.00;7.68;;;;;;;2.89;100.00;98601.25;5059533;28;20032;-77
2022/12/03 04:02:22;;;;;;;15.20;6.70;;;;;;;2.77;100.00;98586.41;5058885;28;20032;-73
2022/12/03 04:04:48;;;;;;;17.92;7.20;;;;;;;2.67;100.00;98583.06;5058614;28;20035;-73
2022/12/03 04:07:14;;;;;;;25.55;7.20;;;;;;;2.66;100.00;98596.28;5093049;28;20043;-73
2022/12/03 04:09:40;;;;;;;17.80;6.38;;;;;;;2.66;100.00;98598.91;5092086;28;20463;-73
2022/12/03 04:14:50;;;;;;;19.15;6.93;;;;;;;2.75;100.00;98612.00;5077942;28;20538;-73
2022/12/03 04:17:15;;;;;;;16.65;7.45;;;;;;;2.67;100.00;98595.41;5057966;28;20037;-73
2022/12/03 04:19:41;;;;;;;14.68;6.43;;;;;;;2.68;100.00;98603.28;5094087;28;20556;-78
2022/12/03 04:24:50;;;;;;;31.13;11.02;;;;;;;2.82;100.00;98618.06;5078453;28;20043;-78
2022/12/03 04:30:00;;;;;;;21.15;8.57;;;;;;;2.67;100.00;98606.84;5078240;28;20036;-79
2022/12/03 04:37:53;;;;;;;16.52;6.75;;;;;;;2.67;100.00;98620.03;5077872;28;20411;-76
2022/12/03 04:43:03;;;;;;;18.17;7.28;;;;;;;2.76;100.00;98628.72;5077733;28;20124;-79
2022/12/03 04:45:28;;;;;;;14.18;6.53;;;;;;;2.77;100.00;98633.97;5092102;28;20063;-78
2022/12/03 04:47:54;;;;;;;16.80;6.85;;;;;;;2.71;100.00;98627.00;5091667;28;20020;-78
2022/12/03 04:50:19;;;;;;;16.35;6.53;;;;;;;2.84;100.00;98634.75;5058361;28;20039;-77
2022/12/03 04:52:45;;;;;;;17.45;6.68;;;;;;;2.81;100.00;98633.03;5074901;28;20035;-79
2022/12/03 04:55:10;;;;;;;14.32;6.10;;;;;;;2.71;100.00;98621.72;5074918;28;20441;-78
2022/12/03 04:57:36;;;;;;;12.20;5.78;;;;;;;2.88;100.00;98633.84;5091626;28;20023;-78
2022/12/03 05:00:03;;;;;;;13.90;6.82;;;;;;;2.99;100.00;98639.81;5058367;28;20019;-78
2022/12/03 05:02:28;;;;;;;14.95;6.75;;;;;;;2.92;100.00;98638.19;5074623;28;20026;-78
2022/12/03 05:04:54;;;;;;;16.27;7.38;;;;;;;2.83;100.00;98631.25;5074823;28;20028;-78
2022/12/03 05:07:19;;;;;;;13.27;6.20;;;;;;;2.83;100.00;98630.41;5057859;28;20024;-77
2022/12/03 05:09:45;;;;;;;19.92;8.00;;;;;;;2.73;100.00;98613.78;5074360;28;20039;-77
2022/12/03 05:12:10;;;;;;;19.73;7.57;;;;;;;2.74;100.00;98624.31;5074685;28;20024;-77
2022/12/03 05:14:36;;;;;;;19.98;7.88;;;;;;;2.83;100.00;98633.03;5074420;28;20127;-79
2022/12/03 05:17:01;;;;;;;20.65;7.32;;;;;;;2.78;100.00;98627.81;5057444;28;20067;-80
2022/12/03 05:22:14;;;;;;;18.02;7.25;;;;;;;2.72;100.00;98638.44;5076843;28;20122;-80
2022/12/03 05:24:39;;;;;;;19.88;7.72;;;;;;;2.61;100.00;98627.16;5074158;28;20063;-79
2022/12/03 05:27:05;;;;;;;19.98;7.72;;;;;;;2.70;100.00;98627.03;5057552;28;20522;-79
2022/12/03 05:29:30;;;;;;;17.77;7.93;;;;;;;2.70;100.00;98633.22;5057136;28;20042;-79
2022/12/03 05:31:56;;;;;;;18.13;7.55;;;;;;;2.58;100.00;98628.09;5073998;28;20027;-78
2022/12/03 05:34:21;;;;;;;20.65;7.45;;;;;;;2.55;100.00;98628.09;5056894;28;20070;-78
2022/12/03 05:36:47;;;;;;;16.75;7.75;;;;;;;2.49;100.00;98628.19;5056864;28;20546;-79
2022/12/03 05:39:13;;;;;;;22.58;8.50;;;;;;;2.47;100.00;98629.09;5073614;28;20024;-79
2022/12/03 05:44:22;;;;;;;18.73;8.20;;;;;;;2.78;100.00;98651.56;5076507;28;20411;-79
2022/12/03 05:46:48;;;;;;;18.95;8.40;;;;;;;2.73;100.00;98642.84;5073511;28;20123;-79
2022/12/03 05:49:13;;;;;;;16.50;7.35;;;;;;;2.57;100.00;98626.34;5073114;28;20020;-80
2022/12/03 05:51:44;;;;;;;18.98;8.77;;;;;;;2.54;100.00;98629.00;5071532;28;20110;-80
2022/12/03 05:54:10;;;;;;;18.38;9.15;;;;;;;2.49;100.00;98617.63;5071250;28;20110;-81
2022/12/03 05:56:35;;;;;;;204.38;112.75;;;;;;;2.72;100.00;98644.63;5089165;28;20189;-79
2022/12/03 05:59:01;;;;;;;27.92;14.23;;;;;;;2.72;100.00;98641.09;5072218;28;20020;-79
2022/12/03 06:01:26;;;;;;;16.25;8.13;;;;;;;2.77;100.00;98643.69;5071532;28;20111;-77
2022/12/03 06:03:52;;;;;;;18.48;8.40;;;;;;;2.69;100.00;98644.66;5054587;28;20430;-79
2022/12/03 06:06:17;;;;;;;22.80;9.15;;;;;;;2.56;100.00;98618.41;5071389;28;20112;-82
2022/12/03 06:08:43;;;;;;;15.10;6.90;;;;;;;2.69;100.00;98642.00;5054240;28;20020;-82
2022/12/03 06:11:08;;;;;;;24.75;8.10;;;;;;;2.78;100.00;98648.94;5072635;28;20032;-71
2022/12/03 06:13:34;;;;;;;15.00;7.00;;;;;;;2.77;100.00;98646.34;5088733;28;20028;-70
2022/12/03 06:15:59;;;;;;;15.95;6.60;;;;;;;2.87;100.00;98648.81;5070720;28;20052;-72
2022/12/03 06:18:25;;;;;;;16.67;7.22;;;;;;;3.06;100.00;98658.22;5070448;28;20032;-70
2022/12/03 06:20:50;;;;;;;17.98;7.50;;;;;;;3.08;100.00;98660.84;5070875;28;20051;-71
2022/12/03 06:23:16;;;;;;;13.82;6.45;;;;;;;2.92;100.00;98646.13;5070787;28;20403;-70
2022/12/03 06:25:41;;;;;;;16.67;6.47;;;;;;;2.87;100.00;98640.88;5054190;28;20035;-88
2022/12/03 06:28:07;;;;;;;21.15;7.10;;;;;;;2.87;100.00;98640.00;5059682;28;20161;-84
2022/12/03 06:30:34;;;;;;;15.93;6.75;;;;;;;2.82;100.00;98644.50;5088347;28;20035;-75
2022/12/03 06:33:00;;;;;;;14.63;7.28;;;;;;;2.86;100.00;98648.84;5089157;28;20436;-72
2022/12/03 06:35:25;;;;;;;18.27;6.93;;;;;;;2.95;100.00;98669.84;5070461;28;20036;-72
2022/12/03 06:37:51;;;;;;;14.20;5.63;;;;;;;2.91;100.00;98657.56;5088524;28;20034;-73
2022/12/03 06:40:17;;;;;;;20.83;6.78;;;;;;;2.90;100.00;98671.66;5088692;28;20034;-71
2022/12/03 06:42:43;;;;;;;19.88;6.53;;;;;;;2.88;100.00;98654.97;5053195;28;20411;-70
2022/12/03 06:45:09;;;;;;;22.13;7.90;;;;;;;2.96;100.00;98658.38;5070258;28;20050;-70
2022/12/03 06:47:34;;;;;;;19.33;6.45;;;;;;;3.10;100.00;98665.22;5070052;28;20028;-71
2022/12/03 06:50:00;;;;;;;17.10;6.60;;;;;;;3.14;100.00;98669.56;5070062;28;20024;-71
2022/12/03 06:52:25;;;;;;;20.30;7.07;;;;;;;3.19;100.00;98667.75;5070053;28;20488;-71
2022/12/03 06:54:51;;;;;;;17.45;7.68;;;;;;;3.25;100.00;98667.66;5088284;28;20028;-70
2022/12/03 06:57:16;;;;;;;21.35;7.93;;;;;;;3.29;100.00;98649.97;5070103;28;20024;-71
2022/12/03 06:59:42;;;;;;;18.90;7.63;;;;;;;3.35;100.00;98644.59;5069969;28;20074;-69
2022/12/03 07:02:09;;;;;;;25.98;8.68;;;;;;;3.35;100.00;98639.28;5072082;28;20031;-69
2022/12/03 07:04:35;;;;;;;20.83;7.90;;;;;;;3.40;100.00;98642.72;5073839;28;20511;-69
2022/12/03 07:07:00;;;;;;;18.50;7.80;;;;;;;3.29;100.00;98631.47;5073452;28;20020;-71
2022/12/03 07:09:26;;;;;;;27.60;8.27;;;;;;;3.18;100.00;98625.44;5091763;28;20034;-70
2022/12/03 07:11:52;;;;;;;20.30;7.97;;;;;;;3.20;100.00;98634.22;5073593;28;20032;-73
2022/12/03 07:14:20;;;;;;;24.02;8.20;;;;;;;3.42;100.00;98645.34;5090549;28;20044;-71
2022/12/03 07:16:46;;;;;;;18.52;7.93;;;;;;;3.42;100.00;98629.47;5073525;28;20020;-71
2022/12/03 07:19:12;;;;;;;17.45;7.65;;;;;;;3.53;100.00;98644.28;5073437;28;20036;-70
2022/12/03 07:21:37;;;;;;;18.05;7.65;;;;;;;3.45;100.00;98632.94;5091526;28;20028;-70
2022/12/03 07:24:03;;;;;;;18.83;7.82;;;;;;;3.48;100.00;98629.38;5073610;28;20032;-72
2022/12/03 07:26:29;;;;;;;22.55;8.77;;;;;;;3.57;100.00;98631.88;5073871;28;20443;-70
2022/12/03 07:28:57;;;;;;;23.02;9.02;;;;;;;3.69;100.00;98627.22;5073575;28;20034;-72
2022/12/03 07:31:23;;;;;;;30.67;12.75;;;;;;;3.83;100.00;98630.53;5092076;28;20032;-72
2022/12/03 07:33:48;;;;;;;34.42;13.38;;;;;;;3.98;100.00;98621.44;5073604;28;20031;-70
2022/12/03 07:36:14;;;;;;;24.23;9.55;;;;;;;4.11;100.00;98615.00;5073857;28;20039;-70
2022/12/03 07:38:39;;;;;;;22.52;8.70;;;;;;;4.11;100.00;98608.84;5073357;28;20403;-71
2022/12/03 07:41:05;;;;;;;19.35;8.75;;;;;;;4.21;100.00;98602.47;5073230;28;20032;-71
2022/12/03 07:43:31;;;;;;;23.83;8.68;;;;;;;4.14;100.00;98606.13;5056492;28;20028;-71
2022/12/03 07:45:57;;;;;;;20.67;8.45;;;;;;;4.26;100.00;98601.47;5073181;28;20032;-70
2022/12/03 07:48:23;;;;;;;20.83;9.50;;;;;;;4.31;100.00;98588.13;5056347;28;20031;-70
2022/12/03 07:50:48;;;;;;;19.63;8.68;;;;;;;4.50;100.00;98588.59;5073292;28;20046;-71
2022/12/03 07:53:14;;;;;;;20.85;8.15;;;;;;;4.33;100.00;98576.63;5106846;28;20032;-72
2022/12/03 07:55:39;;;;;;;18.00;7.30;;;;;;;4.37;100.00;98554.44;5091077;28;20091;-72
2022/12/03 07:58:05;;;;;;;21.58;9.93;;;;;;;4.12;100.00;98555.00;5056171;28;20032;-71
2022/12/03 08:00:30;;;;;;;17.75;8.02;;;;;;;4.12;100.00;98560.28;5073376;28;20507;-70
2022/12/03 08:02:56;;;;;;;18.73;9.00;;;;;;;4.25;100.00;98580.31;5056317;28;20032;-70
2022/12/03 08:05:22;;;;;;;19.25;8.30;;;;;;;4.28;100.00;98577.59;5073461;28;20093;-71
2022/12/03 08:07:47;;;;;;;19.73;7.00;;;;;;;4.35;100.00;98568.63;5090855;28;20055;-70
2022/12/03 08:10:15;;;;;;;17.50;7.82;;;;;;;4.28;100.00;98565.22;5073175;28;20068;-70
2022/12/03 08:12:41;;;;;;;18.30;7.47;;;;;;;4.29;100.00;98563.47;5090168;28;20028;-71
2022/12/03 08:15:13;;;;;;;17.52;7.55;;;;;;;4.26;100.00;98568.81;5072425;28;20117;-72
2022/12/03 08:17:39;;;;;;;17.08;7.32;;;;;;;4.41;100.00;98564.97;5091125;28;20063;-71
2022/12/03 08:20:10;;;;;;;27.17;12.57;;;;;;;4.34;100.00;98557.16;5072955;28;20474;-70
2022/12/03 08:22:36;;;;;;;19.27;7.45;;;;;;;4.42;100.00;98561.44;5073172;28;20093;-71
2022/12/03 08:25:01;;;;;;;22.55;9.73;;;;;;;4.43;100.00;98561.38;5072929;28;20388;-70
2022/12/03 08:27:27;;;;;;;20.15;7.68;;;;;;;4.51;100.00;98561.22;5056152;28;20028;-71
2022/12/03 08:29:57;;;;;;;22.65;9.88;;;;;;;4.45;100.00;98548.13;5090981;28;20093;-70
2022/12/03 08:32:22;;;;;;;15.05;7.20;;;;;;;4.49;100.00;98553.28;5072844;28;20047;-70
2022/12/03 08:34:48;;;;;;;19.73;7.03;;;;;;;4.30;100.00;98534.31;5091033;28;20511;-70
2022/12/03 08:37:18;;;;;;;19.52;8.27;;;;;;;4.47;100.00;98549.81;5090373;28;20115;-71
2022/12/03 08:39:48;;;;;;;27.02;13.18;;;;;;;4.46;100.00;98557.81;5072561;28;20024;-71
2022/12/03 08:42:40;;;;;;;34.80;15.45;;;;;;;4.45;100.00;98556.94;5088626;28;20028;-69
2022/12/03 08:45:39;;;;;;;31.57;12.67;;;;;;;4.60;100.00;98558.38;5072559;28;20568;-70
2022/12/03 08:48:17;;;;;;;33.13;11.93;;;;;;;4.69;100.00;98558.16;5072836;28;20487;-70
2022/12/03 08:50:43;;;;;;;21.25;9.63;;;;;;;4.88;100.00;98560.38;5068489;28;20032;-71
2022/12/03 08:53:12;;;;;;;21.65;10.25;;;;;;;4.68;100.00;98536.09;5072000;28;20032;-71
2022/12/03 08:55:43;;;;;;;23.77;10.18;;;;;;;4.54;100.00;98532.03;5090628;28;20123;-71
2022/12/03 08:58:18;;;;;;;32.22;11.90;;;;;;;4.36;100.00;98525.34;5072188;28;20032;-71
2022/12/03 09:00:43;;;;;;;22.17;11.10;;;;;;;4.09;100.00;98533.88;5086463;28;20028;-71
2022/12/03 09:03:15;;;;;;;22.38;10.93;;;;;;;4.23;100.00;98550.34;5071947;28;20024;-72
2022/12/03 09:05:41;;;;;;;22.17;11.00;;;;;;;4.32;100.00;98547.50;5067479;28;20031;-70
2022/12/03 09:08:06;;;;;;;28.02;11.18;;;;;;;4.32;100.00;98531.63;5072326;28;20016;-70
2022/12/03 09:10:32;;;;;;;21.75;9.85;;;;;;;4.54;100.00;98538.19;5090661;28;20032;-70
2022/12/03 09:12:57;;;;;;;26.77;11.30;;;;;;;4.61;100.00;98534.50;5090188;28;20032;-72
2022/12/03 09:15:23;;;;;;;27.23;11.73;;;;;;;4.69;100.00;98526.38;5089871;28;20098;-70
2022/12/03 09:17:48;;;;;;;24.77;10.95;;;;;;;4.78;100.00;98532.34;5090111;28;20031;-70
2022/12/03 09:20:14;;;;;;;24.23;11.27;;;;;;;5.01;100.00;98536.22;5071597;28;20039;-70
2022/12/03 09:22:55;;;;;;;31.30;12.90;;;;;;;5.09;100.00;98539.56;5056167;28;20048;-70
2022/12/03 09:25:20;;;;;;;20.23;9.30;;;;;;;5.05;100.00;98519.31;5088967;28;20035;-71
2022/12/03 09:27:46;;;;;;;22.58;9.13;;;;;;;4.90;100.00;98518.78;5089665;28;20097;-70
2022/12/03 09:30:11;;;;;;;31.77;10.63;;;;;;;5.03;100.00;98522.03;5089656;28;20468;-69
2022/12/03 09:32:37;;;;;;;16.00;8.20;;;;;;;4.85;100.00;98510.09;5089904;28;20093;-71
2022/12/03 09:35:03;;;;;;;21.58;9.65;;;;;;;4.81;100.00;98511.06;5071477;28;20053;-70
2022/12/03 09:37:29;;;;;;;27.10;12.43;;;;;;;4.96;100.00;98527.50;5071363;28;20102;-71
2022/12/03 09:39:54;;;;;;;24.42;10.95;;;;;;;5.02;100.00;98508.78;5071447;28;20123;-71
2022/12/03 09:42:20;;;;;;;26.40;10.30;;;;;;;4.86;100.00;98503.84;5071479;28;20388;-71
2022/12/03 09:44:46;;;;;;;22.73;9.25;;;;;;;4.77;100.00;98504.09;5070943;28;20085;-71
2022/12/03 09:47:11;;;;;;;22.80;10.55;;;;;;;4.39;100.00;98485.56;5071564;28;20030;-70
2022/12/03 09:49:38;;;;;;;27.58;13.35;;;;;;;4.56;100.00;98514.31;5071108;28;20028;-73
2022/12/03 09:52:04;;;;;;;30.45;12.73;;;;;;;4.54;100.00;98524.06;5073028;28;20070;-70
2022/12/03 09:54:31;;;;;;;30.00;12.82;;;;;;;4.64;100.00;98523.84;5070291;28;20419;-70
2022/12/03 09:57:01;;;;;;;22.83;10.27;;;;;;;4.68;100.00;98522.84;5072865;28;20067;-70
2022/12/03 09:59:31;;;;;;;24.02;9.27;;;;;;;4.70;100.00;98515.75;5091040;28;20035;-71
2022/12/03 10:01:57;;;;;;;33.92;12.05;;;;;;;4.90;100.00;98523.22;5073480;28;20035;-71
2022/12/03 10:04:23;;;;;;;29.95;13.25;;;;;;;5.04;100.00;98505.22;5073246;28;20032;-70
2022/12/03 10:06:49;;;;;;;25.83;12.15;;;;;;;5.10;100.00;98507.72;5073053;28;20028;-70
2022/12/03 10:09:21;;;;;;;29.23;11.38;;;;;;;5.06;100.00;98499.84;5073171;28;20031;-71
2022/12/03 10:11:48;;;;;;;27.17;11.48;;;;;;;4.81;100.00;98492.50;5073376;28;20020;-70
2022/12/03 10:14:15;;;;;;;39.55;14.60;;;;;;;4.67;100.00;98501.69;5072793;28;20064;-71
2022/12/03 10:16:41;;;;;;;37.15;15.52;;;;;;;4.79;100.00;98512.88;5072862;28;20032;-71
2022/12/03 10:19:10;;;;;;;88.72;35.22;;;;;;;4.63;100.00;98500.91;5072758;28;20089;-70
2022/12/03 10:21:37;;;;;;;46.90;20.60;;;;;;;4.87;100.00;98512.69;5055955;28;20038;-71
2022/12/03 10:24:27;;;;;;;34.20;13.63;;;;;;;4.83;100.00;98509.22;5056000;28;20118;-70
2022/12/03 10:26:55;;;;;;;33.50;11.27;;;;;;;4.81;100.00;98515.47;5069842;28;20053;-70
2022/12/03 10:29:23;;;;;;;26.50;12.60;;;;;;;4.80;100.00;98508.44;5072819;28;20071;-70
2022/12/03 10:32:07;;;;;;;30.88;12.05;;;;;;;4.91;100.00;98502.00;5056116;28;20028;-69
2022/12/03 10:34:34;;;;;;;27.80;11.98;;;;;;;4.71;100.00;98483.03;5072944;28;20028;-71
2022/12/03 10:37:15;;;;;;;28.42;13.05;;;;;;;4.64;100.00;98486.75;5076269;28;20119;-71
2022/12/03 10:40:04;;;;;;;29.55;13.18;;;;;;;4.92;100.00;98494.91;5095235;28;20031;-70
2022/12/03 10:42:34;;;;;;;51.08;21.65;;;;;;;5.05;100.00;98495.47;5094998;28;20035;-70
2022/12/03 10:45:15;;;;;;;30.27;14.27;;;;;;;5.10;100.00;98485.63;5077098;28;20052;-71
2022/12/03 10:47:41;;;;;;;35.45;14.43;;;;;;;5.12;100.00;98487.31;5094655;28;20031;-71
2022/12/03 10:50:16;;;;;;;34.55;16.65;;;;;;;5.08;100.00;98477.69;5076416;28;20024;-72
2022/12/03 10:52:42;;;;;;;33.88;15.32;;;;;;;5.09;100.00;98473.28;5076503;28;20556;-70
2022/12/03 10:55:11;;;;;;;34.25;15.65;;;;;;;5.24;100.00;98483.47;5076524;28;20107;-70
2022/12/03 10:57:37;;;;;;;43.33;18.30;;;;;;;5.30;100.00;98478.00;5094392;28;20036;-70
2022/12/03 11:00:04;;;;;;;41.20;18.35;;;;;;;5.10;100.00;98475.03;5076371;28;20024;-70
2022/12/03 11:02:30;;;;;;;39.30;17.52;;;;;;;4.97;100.00;98460.31;5076328;28;20035;-70
2022/12/03 11:04:55;;;;;;;39.03;18.08;;;;;;;5.07;100.00;98475.09;5094563;28;20051;-70
2022/12/03 11:07:23;;;;;;;38.15;17.20;;;;;;;5.26;100.00;98476.38;5076187;28;20063;-70
2022/12/03 11:09:50;;;;;;;37.58;17.02;;;;;;;5.47;100.00;98481.13;5094344;28;20020;-70
2022/12/03 11:12:20;;;;;;;36.88;15.88;;;;;;;5.63;100.00;98476.25;5076255;28;20024;-70
2022/12/03 11:14:55;;;;;;;37.33;14.98;;;;;;;5.41;100.00;98454.75;5075810;28;20051;-70
2022/12/03 11:17:40;;;;;;;36.20;16.33;;;;;;;5.18;100.00;98442.09;5094143;28;20047;-70
2022/12/03 11:20:32;;;;;;;38.90;17.60;;;;;;;5.10;100.00;98453.81;5076171;28;20031;-70
2022/12/03 11:22:58;;;;;;;47.78;19.25;;;;;;;5.07;100.00;98468.03;5049150;28;20040;-69
2022/12/03 11:25:23;;;;;;;39.20;18.75;;;;;;;5.38;100.00;98476.91;5076054;28;20043;-71
2022/12/03 11:28:10;;;;;;;29.65;12.15;;;;;;;5.14;100.00;98451.03;5075735;28;20024;-69
2022/12/03 11:30:52;;;;;;;27.75;11.13;;;;;;;4.96;100.00;98440.88;5093815;28;20035;-69
2022/12/03 11:33:21;;;;;;;29.00;12.10;;;;;;;5.02;100.00;98443.38;5093909;28;20031;-69
2022/12/03 11:36:05;;;;;;;37.70;15.15;;;;;;;4.97;100.00;98447.94;5093805;28;20120;-71
2022/12/03 11:38:37;;;;;;;30.65;12.07;;;;;;;4.88;100.00;98449.06;5093894;28;20032;-71
2022/12/03 11:41:30;;;;;;;18.88;8.30;;;;;;;5.16;100.00;98464.25;5093436;28;20111;-70
2022/12/03 11:43:58;;;;;;;27.85;11.95;;;;;;;4.86;100.00;98450.00;5092447;28;20090;-70
2022/12/03 11:46:44;;;;;;;36.13;16.35;;;;;;;5.20;100.00;98465.94;5075431;28;20047;-69
2022/12/03 11:49:24;;;;;;;47.92;19.13;;;;;;;5.33;100.00;98462.03;5074748;28;20090;-70
2022/12/03 11:51:50;;;;;;;30.23;14.82;;;;;;;5.45;100.00;98457.25;5075183;28;20498;-70